Windsor, CA

3:36 AM PDT on September 04, 2015 (GMT -0700)
Sonoma County | | Change Station
CLOSE
Current Station
Airport
Location: Santa Rosa,
Elevation: 125 ft
Nearby Weather Stations

Elev 125 ft 38.50 °N, 122.81 °W | Updated 43 minutes ago

Clear
Clear
51 °F
Feels Like 51 °F
N
0
Wind Variable Wind from North

Today
High -- | Low -- °F
--% Chance of Precip.
Yesterday
High -- | Low -- °F
Precip. -- in
6:43 AM 7:36 PM
Waning Gibbous, 61% visible
Pressure 29.79 in
Visibility 10.0 miles
Clouds Clear
Dew Point 46 °F
Humidity 83%
Rainfall 0.00 in
Snow Depth Not available.
UV 0 out of 12
Pollen 8.00 out of 12
Air Quality Not available.
Flu Activity Not available.
METAR KSTS 040953Z AUTO 00000KT 10SM CLR 11/08 A2981 RMK AO2 SLP086 T01060078 $
Pressure 29.79 in
Visibility 10.0 miles
Clouds Clear
Dew Point 46 °F
Humidity 83%
Rainfall 0.00 in
Snow Depth Not available.
UV 0 out of 12
Pollen 8.00 out of 12
Air Quality Not available.
Flu Activity Not available.
METAR KSTS 040953Z AUTO 00000KT 10SM CLR 11/08 A2981 RMK AO2 SLP086 T01060078 $

10-Day Weather Forecast

×

Almanac

Astronomy

Sep. 04, 2015 Rise Set
Actual Time
Civil Twilight
Nautical Twilight
Astronomical Twilight
Moon
Length of Visible Light
Length of Day
Tomorrow will be .
, % of the Moon is Illuminated

Today's Extremes

State Highs State Lows

Community

WunderPhotos

Upload Photos

1,852,146 photos uploaded!

WunderBlogs® & News

Nearby

Air Quality

  Air Quality AQ Index Pollutant
Not available.

Snow Depth

Station Depth Elevation

Earthquake Activity

City Distance Mag. Time & Date
Minimum magnitude displayed is 2.5.

Coastal Water Temperatures

Place Temperature

Stations

Nearby Weather Stations

Station Location Temp. Windchill Dew Point Humidity Wind Precip. Elev Updated Type